createdAt,value
2023-03-14T00:02:42.444Z,3.20
2023-03-14T00:07:48.319Z,3.70
2023-03-14T00:12:52.618Z,3.00
2023-03-14T00:17:57.263Z,3.17
2023-03-14T00:23:03.741Z,3.30
2023-03-14T00:28:08.061Z,2.88
2023-03-14T00:33:12.247Z,2.97
2023-03-14T00:38:17.837Z,2.53
2023-03-14T00:43:25.875Z,2.65
2023-03-14T00:48:32.437Z,2.90
2023-03-14T00:53:40.965Z,3.10
2023-03-14T00:58:45.585Z,2.50
2023-03-14T01:03:49.998Z,3.20
2023-03-14T01:08:56.150Z,2.33
2023-03-14T01:14:01.317Z,2.30
2023-03-14T01:19:06.945Z,2.75
2023-03-14T01:24:14.692Z,2.28
2023-03-14T01:29:19.063Z,3.03
2023-03-14T01:34:23.311Z,2.05
2023-03-14T01:39:29.787Z,2.20
2023-03-14T01:44:50.299Z,2.88
2023-03-14T01:49:58.775Z,2.35
2023-03-14T01:55:07.695Z,2.35
2023-03-14T02:00:15.452Z,2.25
2023-03-14T02:05:23.956Z,2.53
2023-03-14T02:10:50.468Z,3.80
2023-03-14T02:16:00.101Z,3.78
2023-03-14T02:21:46.969Z,4.45
2023-03-14T02:27:15.848Z,5.13
2023-03-14T02:32:24.226Z,3.60
2023-03-14T02:37:35.722Z,5.28
2023-03-14T02:42:42.462Z,6.15
2023-03-14T02:47:51.813Z,4.70
2023-03-14T02:52:56.065Z,4.10
2023-03-14T02:58:02.464Z,6.22
2023-03-14T03:03:07.351Z,5.32
2023-03-14T03:08:12.152Z,5.18
2023-03-14T03:13:19.187Z,4.82
2023-03-14T03:18:27.661Z,5.60
2023-03-14T03:23:32.857Z,6.43
2023-03-14T03:28:38.667Z,8.32
2023-03-14T03:33:43.318Z,4.57
2023-03-14T03:38:47.703Z,2.92
2023-03-14T03:43:55.317Z,3.33
2023-03-14T03:49:02.753Z,2.90
2023-03-14T03:54:07.078Z,3.40
2023-03-14T03:59:12.975Z,3.58
2023-03-14T04:04:17.356Z,3.40
2023-03-14T04:09:22.265Z,3.35
2023-03-14T04:14:44.388Z,3.83
2023-03-14T04:19:59.636Z,4.28
2023-03-14T04:25:12.094Z,4.13
2023-03-14T04:30:23.453Z,4.10
2023-03-14T04:35:37.094Z,5.18
2023-03-14T04:45:53.210Z,4.93
2023-03-14T04:50:57.711Z,5.63
2023-03-14T04:56:04.193Z,4.13
2023-03-14T05:01:16.248Z,10.52
2023-03-14T05:06:38.791Z,7.93
2023-03-14T05:12:03.222Z,3.80
2023-03-14T05:17:15.729Z,5.30
2023-03-14T05:22:44.004Z,4.05
2023-03-14T05:28:26.449Z,4.93
2023-03-14T05:33:46.205Z,4.03
2023-03-14T05:39:10.958Z,4.13
2023-03-14T05:44:34.664Z,4.28
2023-03-14T05:49:58.878Z,3.50
2023-03-14T05:55:10.986Z,3.38
2023-03-14T06:00:47.944Z,3.15
2023-03-14T06:06:19.053Z,2.90
2023-03-14T06:11:23.582Z,4.32
2023-03-14T06:16:28.036Z,3.72
2023-03-14T06:21:33.998Z,3.78
2023-03-14T06:26:38.552Z,3.50
2023-03-14T06:31:42.762Z,3.25
2023-03-14T06:36:49.453Z,4.70
2023-03-14T06:41:54.055Z,3.90
2023-03-14T06:46:58.725Z,3.45
2023-03-14T06:52:04.997Z,3.78
2023-03-14T06:57:10.072Z,4.80
2023-03-14T07:02:14.837Z,4.43
2023-03-14T07:07:22.829Z,3.95
2023-03-14T07:12:27.055Z,3.28
2023-03-14T07:17:32.396Z,2.80
2023-03-14T07:22:38.006Z,4.22
2023-03-14T07:27:42.574Z,4.18
2023-03-14T07:32:46.802Z,3.55
2023-03-14T07:37:53.670Z,3.60
2023-03-14T07:43:05.806Z,3.83
2023-03-14T07:48:28.133Z,4.72
2023-03-14T07:53:34.242Z,5.85
2023-03-14T07:58:38.391Z,3.92
2023-03-14T08:03:42.640Z,4.15
2023-03-14T08:08:48.265Z,3.58
2023-03-14T08:13:52.927Z,3.63
2023-03-14T08:18:57.597Z,5.10
2023-03-14T08:24:05.936Z,4.82
2023-03-14T08:29:14.021Z,3.97
2023-03-14T08:34:18.176Z,4.70
2023-03-14T08:39:24.566Z,5.05
2023-03-14T08:44:29.079Z,4.75
2023-03-14T08:49:33.610Z,4.38
2023-03-14T08:54:39.450Z,4.00
2023-03-14T08:59:43.919Z,4.05
2023-03-14T09:04:48.171Z,4.90
2023-03-14T09:09:54.142Z,5.55
2023-03-14T09:14:58.930Z,3.85
2023-03-14T09:20:07.163Z,4.38
2023-03-14T09:25:13.368Z,4.80
2023-03-14T09:30:18.610Z,4.05
2023-03-14T09:35:23.458Z,5.80
2023-03-14T09:40:34.271Z,3.60
2023-03-14T09:45:41.651Z,3.83
2023-03-14T09:50:50.678Z,2.85
2023-03-14T09:56:00.271Z,4.50
2023-03-14T10:01:04.858Z,2.90
2023-03-14T10:06:14.111Z,5.80
2023-03-14T10:11:20.164Z,10.82
2023-03-14T10:16:31.485Z,8.68
2023-03-14T10:21:40.678Z,11.25
2023-03-14T10:26:49.747Z,5.03
2023-03-14T10:31:56.301Z,9.43
2023-03-14T10:37:08.639Z,4.85
2023-03-14T10:42:23.351Z,6.85
2023-03-14T10:47:29.478Z,6.75
2023-03-14T10:53:00.267Z,5.38
2023-03-14T10:58:00.622Z,5.05
2023-03-14T11:03:12.761Z,4.57
2023-03-14T11:08:26.151Z,6.07
2023-03-14T11:13:39.851Z,4.47
2023-03-14T11:19:14.079Z,4.95
2023-03-14T11:24:38.641Z,5.97
2023-03-14T11:29:57.594Z,5.05
2023-03-14T11:35:06.457Z,4.35
2023-03-14T11:40:16.896Z,5.60
2023-03-14T11:45:29.073Z,5.93
2023-03-14T11:50:35.416Z,5.93
2023-03-14T11:55:43.331Z,6.82
2023-03-14T12:00:50.635Z,10.68
2023-03-14T12:06:12.152Z,17.88
2023-03-14T12:11:28.159Z,10.23
2023-03-14T12:16:41.516Z,11.38
2023-03-14T12:21:50.576Z,10.40
2023-03-14T12:26:57.238Z,7.65
2023-03-14T12:32:25.862Z,9.40
2023-03-14T12:37:38.654Z,7.22
2023-03-14T12:42:56.557Z,10.65
2023-03-14T12:48:11.636Z,12.38
2023-03-14T12:53:53.030Z,9.43
2023-03-14T12:59:22.129Z,13.07
2023-03-14T13:04:39.567Z,12.38
2023-03-14T13:10:06.729Z,9.55
2023-03-14T13:15:22.311Z,10.80
2023-03-14T13:20:33.238Z,11.90
2023-03-14T13:25:38.578Z,12.80
2023-03-14T13:30:45.387Z,10.32
2023-03-14T13:35:56.709Z,10.95
2023-03-14T13:41:02.622Z,7.72
2023-03-14T13:46:09.353Z,6.50
2023-03-14T13:51:18.739Z,8.88
2023-03-14T13:56:24.869Z,8.68
2023-03-14T14:01:32.547Z,14.45
2023-03-14T14:06:40.558Z,11.05
2023-03-14T14:11:59.898Z,10.48
2023-03-14T14:17:15.908Z,13.18
2023-03-14T14:22:22.968Z,9.07
2023-03-14T14:27:32.615Z,14.15
2023-03-14T14:32:39.276Z,9.73
2023-03-14T14:37:46.666Z,21.13
2023-03-14T14:42:52.325Z,9.85
2023-03-14T14:47:59.660Z,9.77
2023-03-14T14:53:24.717Z,18.65
2023-03-14T14:58:31.546Z,14.07
2023-03-14T15:03:37.096Z,8.43
2023-03-14T15:08:43.214Z,8.38
2023-03-14T15:13:47.802Z,10.90
2023-03-14T15:18:55.907Z,6.82
2023-03-14T15:24:01.786Z,6.80
2023-03-14T15:29:09.202Z,7.25
2023-03-14T15:34:13.686Z,10.73
2023-03-14T15:39:19.601Z,11.10
2023-03-14T15:44:23.814Z,11.63
2023-03-14T15:49:28.283Z,10.48
2023-03-14T15:54:34.507Z,11.60
2023-03-14T15:59:38.897Z,8.05
2023-03-14T16:04:43.327Z,6.05
2023-03-14T16:09:49.038Z,6.72
2023-03-14T16:14:53.439Z,7.05
2023-03-14T16:19:57.579Z,10.75
2023-03-14T16:25:04.359Z,12.45
2023-03-14T16:30:09.921Z,19.70
2023-03-14T16:35:14.046Z,15.02
2023-03-14T16:40:20.127Z,15.02
2023-03-14T16:45:24.696Z,14.77
2023-03-14T16:50:28.798Z,14.40
2023-03-14T16:55:34.568Z,10.50
2023-03-14T17:00:39.593Z,9.13
2023-03-14T17:05:48.125Z,11.07
2023-03-14T17:10:54.064Z,9.82
2023-03-14T17:16:00.320Z,6.65
2023-03-14T17:21:05.464Z,8.02
2023-03-14T17:26:13.081Z,10.20
2023-03-14T17:31:19.406Z,8.65
2023-03-14T17:36:26.748Z,12.18
2023-03-14T17:41:32.477Z,11.32
2023-03-14T17:46:36.896Z,9.55
2023-03-14T17:51:41.580Z,9.23
2023-03-14T17:56:49.265Z,10.35
2023-03-14T18:01:53.906Z,9.93
2023-03-14T18:06:58.223Z,12.57
2023-03-14T18:12:08.223Z,17.13
2023-03-14T18:17:14.135Z,18.75
2023-03-14T18:22:21.012Z,11.27
2023-03-14T18:27:26.935Z,12.35
2023-03-14T18:32:31.814Z,14.25
2023-03-14T18:37:36.274Z,12.20
2023-03-14T18:42:42.269Z,12.90
2023-03-14T18:47:46.714Z,10.27
2023-03-14T18:52:51.472Z,13.73
2023-03-14T18:57:57.436Z,22.45
2023-03-14T19:03:02.346Z,10.85
2023-03-14T19:08:07.086Z,11.75
2023-03-14T19:13:13.202Z,15.95
2023-03-14T19:18:17.540Z,9.85
2023-03-14T19:23:24.814Z,9.32
2023-03-14T19:28:32.304Z,12.73
2023-03-14T19:33:36.459Z,8.93
2023-03-14T19:38:40.869Z,8.23
2023-03-14T19:43:46.814Z,11.88
2023-03-14T19:48:54.544Z,10.20
2023-03-14T19:54:03.388Z,8.07
2023-03-14T19:59:09.024Z,7.68
2023-03-14T20:04:14.925Z,7.20
2023-03-14T20:09:19.314Z,7.55
2023-03-14T20:14:25.220Z,8.98
2023-03-14T20:19:29.742Z,9.38
2023-03-14T20:24:34.397Z,9.13
2023-03-14T20:29:39.965Z,7.60
2023-03-14T20:34:44.325Z,12.43
2023-03-14T20:39:48.450Z,8.70
2023-03-14T20:44:54.816Z,6.03
2023-03-14T20:50:01.879Z,10.82
2023-03-14T20:55:06.787Z,8.15
2023-03-14T21:00:15.803Z,6.60
2023-03-14T21:05:20.277Z,8.10
2023-03-14T21:10:24.824Z,5.95
2023-03-14T21:15:31.289Z,7.13
2023-03-14T21:20:36.982Z,5.60
2023-03-14T21:25:43.377Z,5.25
2023-03-14T21:30:50.353Z,6.97
2023-03-14T21:35:54.812Z,6.32
2023-03-14T21:40:59.672Z,9.27
2023-03-14T21:46:05.365Z,10.50
2023-03-14T21:51:09.811Z,11.15
2023-03-14T21:56:14.795Z,10.10
2023-03-14T22:01:20.466Z,6.03
2023-03-14T22:06:24.848Z,6.90
2023-03-14T22:11:29.247Z,7.00
2023-03-14T22:16:35.094Z,6.60
2023-03-14T22:21:39.326Z,8.07
2023-03-14T22:26:43.476Z,9.80
2023-03-14T22:31:49.887Z,4.35
2023-03-14T22:36:54.110Z,12.43
2023-03-14T22:41:58.553Z,20.38
2023-03-14T22:47:05.233Z,50.42
2023-03-14T22:52:09.652Z,52.88
2023-03-14T22:57:14.381Z,7.97
2023-03-14T23:02:20.101Z,9.90
2023-03-14T23:07:24.548Z,11.10
2023-03-14T23:12:28.763Z,7.43
2023-03-14T23:17:35.086Z,9.88
2023-03-14T23:22:39.529Z,6.55
2023-03-14T23:27:46.483Z,8.10
2023-03-14T23:32:52.352Z,16.80
2023-03-14T23:37:56.564Z,8.35
2023-03-14T23:43:00.675Z,11.50
2023-03-14T23:48:07.372Z,9.57
2023-03-14T23:53:11.828Z,8.50
2023-03-14T23:58:16.169Z,8.90
